createdAt,value
2023-11-16T00:00:02.570Z,1.85
2023-11-16T00:02:31.624Z,3.72
2023-11-16T00:04:58.625Z,3.13
2023-11-16T00:07:25.199Z,2.35
2023-11-16T00:09:52.410Z,6.57
2023-11-16T00:12:19.258Z,2.30
2023-11-16T00:14:45.905Z,3.47
2023-11-16T00:17:12.428Z,1.55
2023-11-16T00:19:38.844Z,1.73
2023-11-16T00:22:05.336Z,1.35
2023-11-16T00:24:32.348Z,1.30
2023-11-16T00:26:59.056Z,3.72
2023-11-16T00:29:25.544Z,3.10
2023-11-16T00:31:51.926Z,6.03
2023-11-16T00:34:18.747Z,7.85
2023-11-16T00:36:46.188Z,2.85
2023-11-16T00:39:17.697Z,6.28
2023-11-16T00:41:44.308Z,4.95
2023-11-16T00:44:11.109Z,2.58
2023-11-16T00:46:40.687Z,3.33
2023-11-16T00:49:07.322Z,1.67
2023-11-16T00:51:33.793Z,2.63
2023-11-16T00:54:01.347Z,1.30
2023-11-16T00:56:28.106Z,2.13
2023-11-16T00:58:54.619Z,2.05
2023-11-16T01:01:21.225Z,2.33
2023-11-16T01:03:47.841Z,2.45
2023-11-16T01:06:14.462Z,2.30
2023-11-16T01:08:40.983Z,2.97
2023-11-16T01:11:08.656Z,3.42
2023-11-16T01:13:36.016Z,4.80
2023-11-16T01:16:02.529Z,3.10
2023-11-16T01:18:29.322Z,4.32
2023-11-16T01:20:55.736Z,2.20
2023-11-16T01:23:22.164Z,6.50
2023-11-16T01:25:48.637Z,4.78
2023-11-16T01:28:15.124Z,4.60
2023-11-16T01:30:41.861Z,7.32
2023-11-16T01:33:08.924Z,2.60
2023-11-16T01:35:39.467Z,2.20
2023-11-16T01:38:08.053Z,4.68
2023-11-16T01:40:36.154Z,1.20
2023-11-16T01:43:03.639Z,4.50
2023-11-16T01:45:34.127Z,0.98
2023-11-16T01:48:05.194Z,2.50
2023-11-16T01:50:33.924Z,1.70
2023-11-16T01:53:01.947Z,2.83
2023-11-16T01:55:28.458Z,4.30
2023-11-16T01:57:55.158Z,4.15
2023-11-16T02:00:21.713Z,3.70
2023-11-16T02:02:49.330Z,7.00
2023-11-16T02:05:16.300Z,7.13
2023-11-16T02:07:44.420Z,3.75
2023-11-16T02:10:11.287Z,4.20
2023-11-16T02:12:37.902Z,4.75
2023-11-16T02:15:04.985Z,2.50
2023-11-16T02:17:31.455Z,4.60
2023-11-16T02:20:00.980Z,3.92
2023-11-16T02:22:29.581Z,1.92
2023-11-16T02:24:56.287Z,5.80
2023-11-16T02:27:23.014Z,5.40
2023-11-16T02:29:51.546Z,3.08
2023-11-16T02:32:19.440Z,5.45
2023-11-16T02:34:46.042Z,3.92
2023-11-16T02:37:12.479Z,3.90
2023-11-16T02:39:39.073Z,4.82
2023-11-16T02:42:06.175Z,3.58
2023-11-16T02:44:32.686Z,4.80
2023-11-16T02:46:59.512Z,3.45
2023-11-16T02:49:27.427Z,7.57
2023-11-16T02:51:53.887Z,4.85
2023-11-16T02:54:20.423Z,5.43
2023-11-16T02:56:46.868Z,7.03
2023-11-16T02:59:13.414Z,3.70
2023-11-16T03:01:39.876Z,3.00
2023-11-16T03:04:06.565Z,5.28
2023-11-16T03:06:34.704Z,9.13
2023-11-16T03:09:01.261Z,6.07
2023-11-16T03:11:27.606Z,10.82
2023-11-16T03:13:54.064Z,9.90
2023-11-16T03:16:20.626Z,13.13
2023-11-16T03:18:47.430Z,10.93
2023-11-16T03:21:14.270Z,7.68
2023-11-16T03:23:41.265Z,7.97
2023-11-16T03:26:07.758Z,13.63
2023-11-16T03:28:34.477Z,12.88
2023-11-16T03:31:01.013Z,10.82
2023-11-16T03:33:27.590Z,9.23
2023-11-16T03:35:54.946Z,10.63
2023-11-16T03:38:21.474Z,15.48
2023-11-16T03:40:48.225Z,11.13
2023-11-16T03:43:14.762Z,11.30
2023-11-16T03:45:41.382Z,8.55
2023-11-16T03:48:09.742Z,14.55
2023-11-16T03:50:37.218Z,11.07
2023-11-16T03:53:04.038Z,10.05
2023-11-16T03:55:30.600Z,13.07
2023-11-16T03:57:57.083Z,9.90
2023-11-16T04:00:23.613Z,12.32
2023-11-16T04:02:50.392Z,11.20
2023-11-16T04:05:17.030Z,12.93
2023-11-16T04:07:45.510Z,18.58
2023-11-16T04:10:12.451Z,10.77
2023-11-16T04:12:39.751Z,12.88
2023-11-16T04:15:07.621Z,12.23
2023-11-16T04:17:34.125Z,13.30
2023-11-16T04:20:00.665Z,13.70
2023-11-16T04:22:28.678Z,13.88
2023-11-16T04:24:55.336Z,10.85
2023-11-16T04:27:22.215Z,11.25
2023-11-16T04:29:48.808Z,15.43
2023-11-16T04:32:15.540Z,13.38
2023-11-16T04:34:41.974Z,12.43
2023-11-16T04:37:08.571Z,11.70
2023-11-16T04:39:35.223Z,6.75
2023-11-16T04:42:03.298Z,10.48
2023-11-16T04:44:29.727Z,9.98
2023-11-16T04:46:56.250Z,8.90
2023-11-16T04:49:23.048Z,9.95
2023-11-16T04:51:49.570Z,12.20
2023-11-16T04:54:16.330Z,12.02
2023-11-16T04:56:43.016Z,10.60
2023-11-16T04:59:10.732Z,10.00
2023-11-16T05:01:38.161Z,15.50
2023-11-16T05:04:05.185Z,12.32
2023-11-16T05:06:34.245Z,19.77
2023-11-16T05:09:00.906Z,11.32
2023-11-16T05:11:27.447Z,15.57
2023-11-16T05:13:53.918Z,10.60
2023-11-16T05:16:20.715Z,12.20
2023-11-16T05:18:47.541Z,11.73
2023-11-16T05:21:17.689Z,11.25
2023-11-16T05:26:11.259Z,9.80
2023-11-16T05:28:37.795Z,7.63
2023-11-16T05:31:04.708Z,7.35
2023-11-16T05:33:32.804Z,8.80
2023-11-16T05:35:59.764Z,8.68
2023-11-16T05:38:27.372Z,11.05
2023-11-16T05:40:53.931Z,8.43
2023-11-16T05:43:21.071Z,9.98
2023-11-16T05:45:47.760Z,10.23
2023-11-16T05:48:14.380Z,7.95
2023-11-16T05:50:40.954Z,8.05
2023-11-16T05:53:07.612Z,9.05
2023-11-16T05:55:36.717Z,9.70
2023-11-16T05:58:03.484Z,10.57
2023-11-16T06:00:30.033Z,8.25
2023-11-16T06:02:57.106Z,8.75
2023-11-16T06:05:24.127Z,9.45
2023-11-16T06:07:50.800Z,7.97
2023-11-16T06:10:18.784Z,9.77
2023-11-16T06:12:45.491Z,7.13
2023-11-16T06:15:12.237Z,10.00
2023-11-16T06:17:39.214Z,11.60
2023-11-16T06:20:06.189Z,7.20
2023-11-16T06:22:33.379Z,9.25
2023-11-16T06:24:59.910Z,11.30
2023-11-16T06:27:26.819Z,13.90
2023-11-16T06:29:53.213Z,8.05
2023-11-16T06:32:21.076Z,8.88
2023-11-16T06:34:47.552Z,12.38
2023-11-16T06:37:14.211Z,10.48
2023-11-16T06:39:41.881Z,8.52
2023-11-16T06:42:08.558Z,7.57
2023-11-16T06:44:35.208Z,14.23
2023-11-16T06:47:03.943Z,8.70
2023-11-16T06:49:30.728Z,8.55
2023-11-16T06:51:57.737Z,10.73
2023-11-16T06:54:33.472Z,10.93
2023-11-16T06:57:05.064Z,6.88
2023-11-16T06:59:32.146Z,11.18
2023-11-16T07:01:59.006Z,9.55
2023-11-16T07:04:25.551Z,8.63
2023-11-16T07:06:54.088Z,12.50
2023-11-16T07:09:20.706Z,10.00
2023-11-16T07:11:48.285Z,7.40
2023-11-16T07:14:14.793Z,10.75
2023-11-16T07:16:42.876Z,8.73
2023-11-16T07:19:09.385Z,10.30
2023-11-16T07:21:36.299Z,9.13
2023-11-16T07:24:03.144Z,13.57
2023-11-16T07:26:29.689Z,9.85
2023-11-16T07:28:59.096Z,9.85
2023-11-16T07:31:25.938Z,8.95
2023-11-16T07:33:52.664Z,10.93
2023-11-16T07:36:23.260Z,10.75
2023-11-16T07:38:50.295Z,11.63
2023-11-16T07:41:16.803Z,14.02
2023-11-16T07:43:43.238Z,8.40
2023-11-16T07:46:10.464Z,8.48
2023-11-16T07:48:36.949Z,8.27
2023-11-16T07:51:04.670Z,8.02
2023-11-16T07:53:31.431Z,10.27
2023-11-16T07:55:57.998Z,9.85
2023-11-16T07:58:24.618Z,14.02
2023-11-16T08:00:51.269Z,10.70
2023-11-16T08:03:18.167Z,11.52
2023-11-16T08:05:45.257Z,15.63
2023-11-16T08:08:12.091Z,11.15
2023-11-16T08:10:39.616Z,10.20
2023-11-16T08:13:06.686Z,8.45
2023-11-16T08:15:34.085Z,5.72
2023-11-16T08:18:00.983Z,11.55
2023-11-16T08:20:27.933Z,6.88
2023-11-16T08:22:54.426Z,10.10
2023-11-16T08:25:24.892Z,6.45
2023-11-16T08:27:52.810Z,8.18
2023-11-16T08:30:20.185Z,13.27
2023-11-16T08:32:46.983Z,11.13
2023-11-16T08:35:13.548Z,12.38
2023-11-16T08:37:41.392Z,10.52
2023-11-16T08:40:08.839Z,15.15
2023-11-16T08:42:35.350Z,16.65
2023-11-16T08:45:01.918Z,12.93
2023-11-16T08:47:28.471Z,12.45
2023-11-16T08:49:54.974Z,13.38
2023-11-16T08:52:22.016Z,10.70
2023-11-16T08:54:48.655Z,8.82
2023-11-16T08:57:15.332Z,10.70
2023-11-16T08:59:42.382Z,9.00
2023-11-16T09:02:09.028Z,7.97
2023-11-16T09:04:35.917Z,9.30
2023-11-16T09:07:02.717Z,8.32
2023-11-16T09:09:29.383Z,6.07
2023-11-16T09:11:56.034Z,6.53
2023-11-16T09:14:25.033Z,10.15
2023-11-16T09:17:05.853Z,9.98
2023-11-16T09:19:36.838Z,8.45
2023-11-16T09:22:03.586Z,7.72
2023-11-16T09:24:32.318Z,6.82
2023-11-16T09:26:58.876Z,10.13
2023-11-16T09:29:25.332Z,3.13
2023-11-16T09:31:51.912Z,8.75
2023-11-16T09:34:18.749Z,7.47
2023-11-16T09:36:45.193Z,9.70
2023-11-16T09:39:14.993Z,5.65
2023-11-16T09:41:48.385Z,4.80
2023-11-16T09:44:15.942Z,5.95
2023-11-16T09:46:50.154Z,5.22
2023-11-16T09:49:18.697Z,5.45
2023-11-16T09:51:46.650Z,7.13
2023-11-16T09:54:14.170Z,4.55
2023-11-16T09:56:43.039Z,5.28
2023-11-16T09:59:10.803Z,3.30
2023-11-16T10:01:37.979Z,5.25
2023-11-16T10:04:05.841Z,11.45
2023-11-16T10:06:33.455Z,10.82
2023-11-16T10:08:59.941Z,7.43
2023-11-16T10:11:26.612Z,4.38
2023-11-16T10:13:54.565Z,7.35
2023-11-16T10:16:26.288Z,5.85
2023-11-16T10:19:03.942Z,5.68
2023-11-16T10:21:30.528Z,5.70
2023-11-16T10:23:59.399Z,4.80
2023-11-16T10:26:26.243Z,5.18
2023-11-16T10:28:54.124Z,5.22
2023-11-16T10:31:21.747Z,7.90
2023-11-16T10:33:50.028Z,6.82
2023-11-16T10:36:16.480Z,5.30
2023-11-16T10:38:44.540Z,6.18
2023-11-16T10:41:12.145Z,4.32
2023-11-16T10:43:40.739Z,7.22
2023-11-16T10:46:08.207Z,3.58
2023-11-16T10:48:37.877Z,4.38
2023-11-16T10:51:11.239Z,3.13
2023-11-16T10:53:40.374Z,6.10
2023-11-16T10:56:07.719Z,5.38
2023-11-16T10:58:37.090Z,3.55
2023-11-16T11:01:04.493Z,3.25
2023-11-16T11:03:31.729Z,6.70
2023-11-16T11:05:58.169Z,4.65
2023-11-16T11:08:36.104Z,5.30
2023-11-16T11:11:04.076Z,7.13
2023-11-16T11:13:33.919Z,4.03
2023-11-16T11:16:14.015Z,5.63
2023-11-16T11:18:50.533Z,3.25
2023-11-16T11:21:22.051Z,3.63
2023-11-16T11:24:02.750Z,6.97
2023-11-16T11:26:40.178Z,8.50
2023-11-16T11:29:06.563Z,2.58
2023-11-16T11:31:38.064Z,6.38
2023-11-16T11:34:05.198Z,2.40
2023-11-16T11:36:32.294Z,2.95
2023-11-16T11:38:59.267Z,3.28
2023-11-16T11:41:25.708Z,4.07
2023-11-16T11:43:52.475Z,5.32
2023-11-16T11:46:19.415Z,6.20
2023-11-16T11:48:47.280Z,2.40
2023-11-16T11:51:14.787Z,4.22
2023-11-16T11:53:45.816Z,3.55
2023-11-16T11:56:14.012Z,2.67
2023-11-16T11:58:40.930Z,3.80
2023-11-16T12:01:07.545Z,5.72
2023-11-16T12:03:34.336Z,7.13
2023-11-16T12:06:05.408Z,4.97
2023-11-16T12:08:42.671Z,4.65
2023-11-16T12:11:11.288Z,3.55
2023-11-16T12:13:41.412Z,5.10
2023-11-16T12:16:10.480Z,6.80
2023-11-16T12:18:38.517Z,1.77
2023-11-16T12:21:24.633Z,3.92
2023-11-16T12:23:54.001Z,2.67
2023-11-16T12:26:27.699Z,2.90
2023-11-16T12:28:56.210Z,1.98
2023-11-16T12:31:23.488Z,4.55
2023-11-16T12:33:50.607Z,3.95
2023-11-16T12:36:25.152Z,5.13
2023-11-16T12:38:53.016Z,3.63
2023-11-16T12:41:23.759Z,5.43
2023-11-16T12:43:52.263Z,1.77
2023-11-16T12:46:22.042Z,10.73
2023-11-16T12:48:48.641Z,2.75
2023-11-16T12:51:15.241Z,1.45
2023-11-16T12:53:41.844Z,1.55
2023-11-16T12:56:09.118Z,4.63
2023-11-16T12:58:37.952Z,7.68
2023-11-16T13:01:08.799Z,1.73
2023-11-16T13:06:15.921Z,3.17
2023-11-16T13:08:45.453Z,6.00
2023-11-16T13:11:13.261Z,3.55
2023-11-16T13:13:41.289Z,2.53
2023-11-16T13:16:08.904Z,1.30
2023-11-16T13:18:35.488Z,2.97
2023-11-16T13:21:02.535Z,5.03
2023-11-16T13:23:29.017Z,5.10
2023-11-16T13:25:55.481Z,2.17
2023-11-16T13:28:24.262Z,2.17
2023-11-16T13:30:51.006Z,3.30
2023-11-16T13:33:19.113Z,1.58
2023-11-16T13:35:46.012Z,3.25
2023-11-16T13:38:13.054Z,3.38
2023-11-16T13:40:39.586Z,13.90
2023-11-16T13:43:06.668Z,1.15
2023-11-16T13:45:33.619Z,3.47
2023-11-16T13:48:00.463Z,1.52
2023-11-16T13:50:27.241Z,3.40
2023-11-16T13:52:56.034Z,1.70
2023-11-16T13:55:23.945Z,1.52
2023-11-16T13:57:50.594Z,4.57
2023-11-16T14:00:17.886Z,2.00
2023-11-16T14:02:44.944Z,1.40
2023-11-16T14:05:14.479Z,1.67
2023-11-16T14:07:42.505Z,1.53
2023-11-16T14:10:20.231Z,2.10
2023-11-16T14:12:50.670Z,1.58
2023-11-16T14:15:17.159Z,4.13
2023-11-16T14:17:44.115Z,3.67
2023-11-16T14:20:11.226Z,1.95
2023-11-16T14:22:39.658Z,2.08
2023-11-16T14:25:07.670Z,1.10
2023-11-16T14:27:35.572Z,1.77
2023-11-16T14:30:02.679Z,1.42
2023-11-16T14:32:29.870Z,2.30
2023-11-16T14:35:01.930Z,6.43
2023-11-16T14:37:33.872Z,2.15
2023-11-16T14:40:01.204Z,1.30
2023-11-16T14:42:29.792Z,0.93
2023-11-16T14:44:56.548Z,2.92
2023-11-16T14:47:32.416Z,5.72
2023-11-16T14:50:03.398Z,3.45
2023-11-16T14:52:31.547Z,5.85
2023-11-16T14:54:57.997Z,3.10
2023-11-16T14:57:26.084Z,4.13
2023-11-16T14:59:52.653Z,2.20
2023-11-16T15:02:19.295Z,2.15
2023-11-16T15:04:46.394Z,2.70
2023-11-16T15:07:13.378Z,2.13
2023-11-16T15:09:40.024Z,5.53
2023-11-16T15:12:06.765Z,5.55
2023-11-16T15:14:33.747Z,2.28
2023-11-16T15:17:00.311Z,1.42
2023-11-16T15:19:27.406Z,2.80
2023-11-16T15:21:53.951Z,3.50
2023-11-16T15:24:21.948Z,2.33
2023-11-16T15:26:51.252Z,2.95
2023-11-16T15:29:18.757Z,3.78
2023-11-16T15:31:45.906Z,4.07
2023-11-16T15:34:16.530Z,3.25
2023-11-16T15:36:43.358Z,4.57
2023-11-16T15:39:10.643Z,5.35
2023-11-16T15:41:40.214Z,2.47
2023-11-16T15:44:07.129Z,3.28
2023-11-16T15:46:34.372Z,4.57
2023-11-16T15:49:04.135Z,2.03
2023-11-16T15:51:30.769Z,4.00
2023-11-16T15:53:58.210Z,2.28
2023-11-16T15:56:29.075Z,2.45
2023-11-16T16:01:24.442Z,0.90
2023-11-16T16:03:52.716Z,0.90
2023-11-16T16:06:25.841Z,2.10
2023-11-16T16:08:52.995Z,1.10
2023-11-16T16:11:20.771Z,2.42
2023-11-16T16:13:47.275Z,1.40
2023-11-16T16:16:14.021Z,0.85
2023-11-16T16:18:41.567Z,1.15
2023-11-16T16:21:11.918Z,1.38
2023-11-16T16:23:38.536Z,1.50
2023-11-16T16:26:05.216Z,5.13
2023-11-16T16:28:32.980Z,2.28
2023-11-16T16:30:59.644Z,1.85
2023-11-16T16:33:26.433Z,3.05
2023-11-16T16:35:52.897Z,1.63
2023-11-16T16:38:19.636Z,4.35
2023-11-16T16:40:46.823Z,2.35
2023-11-16T16:43:13.839Z,1.95
2023-11-16T16:45:44.056Z,3.67
2023-11-16T16:48:12.692Z,3.65
2023-11-16T16:50:40.302Z,2.40
2023-11-16T16:53:07.667Z,5.78
2023-11-16T16:55:34.802Z,6.50
2023-11-16T16:58:02.157Z,5.95
2023-11-16T17:00:28.845Z,2.15
2023-11-16T17:02:55.552Z,3.42
2023-11-16T17:05:22.290Z,3.85
2023-11-16T17:07:49.026Z,3.65
2023-11-16T17:10:15.796Z,4.43
2023-11-16T17:12:42.383Z,4.05
2023-11-16T17:15:09.256Z,3.00
2023-11-16T17:17:36.914Z,3.47
2023-11-16T17:20:03.708Z,8.45
2023-11-16T17:22:31.611Z,4.38
2023-11-16T17:24:58.225Z,4.47
2023-11-16T17:27:24.874Z,5.82
2023-11-16T17:29:51.606Z,4.82
2023-11-16T17:32:18.280Z,4.03
2023-11-16T17:34:44.791Z,4.32
2023-11-16T17:37:11.403Z,9.07
2023-11-16T17:39:39.777Z,5.45
2023-11-16T17:42:06.500Z,5.78
2023-11-16T17:44:33.151Z,2.90
2023-11-16T17:46:59.902Z,2.67
2023-11-16T17:49:26.408Z,4.82
2023-11-16T17:51:53.137Z,5.47
2023-11-16T17:54:19.571Z,4.70
2023-11-16T17:56:46.371Z,3.13
2023-11-16T17:59:12.867Z,4.47
2023-11-16T18:01:39.531Z,2.25
2023-11-16T18:04:06.640Z,2.90
2023-11-16T18:06:33.495Z,5.05
2023-11-16T18:09:00.329Z,5.50
2023-11-16T18:11:27.596Z,3.33
2023-11-16T18:13:54.165Z,11.48
2023-11-16T18:16:22.323Z,1.95
2023-11-16T18:18:51.976Z,2.72
2023-11-16T18:21:18.941Z,4.18
2023-11-16T18:23:45.865Z,2.08
2023-11-16T18:26:12.423Z,4.55
2023-11-16T18:28:39.685Z,2.75
2023-11-16T18:31:10.606Z,2.33
2023-11-16T18:36:04.015Z,1.98
2023-11-16T18:38:30.951Z,2.97
2023-11-16T18:40:58.063Z,4.38
2023-11-16T18:43:25.185Z,3.70
2023-11-16T18:45:52.544Z,2.17
2023-11-16T18:48:19.179Z,2.38
2023-11-16T18:50:45.705Z,1.67
2023-11-16T18:53:13.120Z,2.78
2023-11-16T18:55:41.793Z,2.50
2023-11-16T18:58:08.620Z,4.45
2023-11-16T19:00:35.724Z,2.50
2023-11-16T19:03:14.190Z,2.67
2023-11-16T19:05:45.670Z,3.22
2023-11-16T19:08:12.655Z,2.72
2023-11-16T19:10:39.863Z,2.53
2023-11-16T19:13:06.420Z,1.60
2023-11-16T19:15:33.537Z,3.28
2023-11-16T19:18:00.266Z,2.83
2023-11-16T19:20:27.140Z,2.60
2023-11-16T19:22:53.753Z,1.48
2023-11-16T19:25:20.975Z,3.45
2023-11-16T19:27:50.568Z,3.40
2023-11-16T19:30:17.115Z,2.90
2023-11-16T19:32:46.907Z,3.30
2023-11-16T19:35:13.703Z,2.83
2023-11-16T19:37:40.216Z,3.45
2023-11-16T19:40:07.635Z,5.30
2023-11-16T19:42:34.197Z,4.80
2023-11-16T19:45:00.648Z,4.35
2023-11-16T19:47:35.440Z,5.72
2023-11-16T19:50:03.522Z,2.58
2023-11-16T19:52:30.276Z,3.15
2023-11-16T19:54:56.782Z,2.75
2023-11-16T19:57:23.618Z,2.42
2023-11-16T19:59:50.739Z,2.85
2023-11-16T20:02:18.955Z,1.90
2023-11-16T20:04:45.970Z,1.50
2023-11-16T20:07:12.635Z,4.07
2023-11-16T20:09:39.558Z,4.40
2023-11-16T20:12:07.798Z,3.60
2023-11-16T20:14:34.636Z,2.65
2023-11-16T20:17:01.238Z,4.15
2023-11-16T20:19:30.034Z,3.65
2023-11-16T20:21:56.564Z,3.60
2023-11-16T20:24:23.106Z,3.92
2023-11-16T20:26:49.910Z,5.40
2023-11-16T20:29:17.711Z,2.65
2023-11-16T20:31:47.277Z,8.20
2023-11-16T20:34:13.844Z,3.28
2023-11-16T20:36:41.063Z,4.05
2023-11-16T20:39:07.656Z,6.78
2023-11-16T20:41:41.284Z,4.13
2023-11-16T20:44:10.436Z,2.40
2023-11-16T20:46:36.980Z,4.03
2023-11-16T20:49:03.795Z,4.20
2023-11-16T20:51:33.681Z,2.95
2023-11-16T20:54:00.462Z,3.45
2023-11-16T20:56:27.344Z,4.30
2023-11-16T20:58:53.732Z,10.27
2023-11-16T21:01:20.246Z,5.45
2023-11-16T21:03:47.237Z,5.85
2023-11-16T21:06:14.051Z,6.07
2023-11-16T21:08:43.035Z,4.38
2023-11-16T21:11:12.235Z,7.35
2023-11-16T21:13:39.084Z,8.13
2023-11-16T21:16:08.909Z,7.20
2023-11-16T21:18:36.355Z,9.03
2023-11-16T21:21:02.971Z,7.55
2023-11-16T21:23:29.390Z,9.40
2023-11-16T21:25:55.747Z,9.63
2023-11-16T21:28:22.559Z,5.43
2023-11-16T21:30:49.027Z,7.47
2023-11-16T21:33:15.585Z,6.88
2023-11-16T21:35:43.445Z,7.47
2023-11-16T21:38:10.176Z,6.72
2023-11-16T21:40:36.782Z,6.57
2023-11-16T21:43:03.703Z,8.63
2023-11-16T21:45:30.276Z,10.88
2023-11-16T21:47:57.388Z,9.00
2023-11-16T21:50:23.951Z,6.88
2023-11-16T21:52:50.488Z,9.95
2023-11-16T21:55:16.970Z,7.00
2023-11-16T21:57:43.522Z,10.68
2023-11-16T22:00:11.836Z,6.20
2023-11-16T22:02:38.431Z,6.20
2023-11-16T22:05:14.288Z,4.75
2023-11-16T22:07:51.306Z,8.40
2023-11-16T22:10:18.764Z,5.32
2023-11-16T22:12:50.476Z,6.85
2023-11-16T22:15:18.210Z,5.07
2023-11-16T22:17:46.384Z,6.93
2023-11-16T22:20:13.639Z,7.28
2023-11-16T22:22:40.234Z,6.35
2023-11-16T22:25:07.485Z,4.20
2023-11-16T22:27:34.019Z,5.63
2023-11-16T22:30:01.245Z,7.05
2023-11-16T22:32:27.605Z,4.57
2023-11-16T22:34:54.380Z,4.68
2023-11-16T22:37:20.912Z,6.97
2023-11-16T22:39:47.432Z,4.28
2023-11-16T22:42:13.853Z,2.92
2023-11-16T22:44:40.344Z,5.72
2023-11-16T22:47:08.385Z,6.78
2023-11-16T22:49:34.975Z,4.70
2023-11-16T22:52:01.487Z,4.28
2023-11-16T22:54:30.945Z,2.90
2023-11-16T22:56:57.466Z,3.45
2023-11-16T22:59:24.195Z,5.10
2023-11-16T23:01:50.767Z,3.17
2023-11-16T23:04:17.663Z,2.92
2023-11-16T23:06:44.124Z,3.45
2023-11-16T23:09:10.927Z,2.97
2023-11-16T23:11:37.386Z,2.13
2023-11-16T23:14:03.811Z,3.47
2023-11-16T23:16:30.444Z,4.10
2023-11-16T23:18:57.108Z,2.17
2023-11-16T23:21:33.534Z,3.55
2023-11-16T23:24:06.014Z,6.72
2023-11-16T23:26:32.839Z,4.65
2023-11-16T23:28:59.664Z,1.95
2023-11-16T23:31:26.448Z,2.10
2023-11-16T23:33:52.900Z,2.33
2023-11-16T23:36:19.874Z,6.97
2023-11-16T23:38:48.795Z,3.47
2023-11-16T23:41:15.757Z,6.05
2023-11-16T23:43:42.480Z,3.30
2023-11-16T23:46:09.206Z,5.10
2023-11-16T23:48:35.831Z,3.00
2023-11-16T23:51:13.064Z,2.75
2023-11-16T23:53:46.056Z,2.88
2023-11-16T23:56:12.640Z,5.57
2023-11-16T23:58:39.182Z,5.15
